Time;durP1;ratioP1;P1;durP2;ratioP2;P2;SDS_P1;SDS_P2;PMS_P1;PMS_P2;Temp;Humidity;BMP_temperature;BMP_pressure;BME280_temperature;BME280_humidity;BME280_pressure;Samples;Min_cycle;Max_cycle;Signal;HPM_P1;HPM_P2
2024/04/24 00:00:15;;;;;;;0.30;0.30;;;10.10;92.20;;;;;;4083993;29;20052;-68
2024/04/24 00:02:16;;;;;;;0.63;0.40;;;10.00;92.50;;;;;;4076980;29;20084;-68
2024/04/24 00:04:17;;;;;;;0.90;0.57;;;10.10;92.40;;;;;;4078692;29;20049;-68
2024/04/24 00:06:18;;;;;;;2.03;1.13;;;10.10;92.40;;;;;;4082255;29;20048;-69
2024/04/24 00:08:19;;;;;;;1.45;0.73;;;10.10;92.50;;;;;;4073093;29;20044;-69
2024/04/24 00:10:20;;;;;;;0.57;0.50;;;10.10;92.70;;;;;;4073852;29;20458;-68
2024/04/24 00:12:23;;;;;;;3.78;1.02;;;10.00;92.80;;;;;;4072310;29;20493;-72
2024/04/24 00:14:25;;;;;;;2.30;1.17;;;10.00;93.00;;;;;;4058875;29;20052;-67
2024/04/24 00:16:26;;;;;;;2.83;1.02;;;10.10;92.90;;;;;;4069566;29;20044;-67
2024/04/24 00:18:27;;;;;;;1.25;0.80;;;10.10;92.80;;;;;;4063233;29;20059;-68
2024/04/24 00:20:28;;;;;;;1.40;0.70;;;10.00;93.10;;;;;;4083791;29;20485;-70
2024/04/24 00:22:29;;;;;;;0.98;0.70;;;10.00;93.10;;;;;;4067836;29;20048;-68
2024/04/24 00:24:31;;;;;;;0.93;0.50;;;10.00;93.30;;;;;;4075115;29;20056;-68
2024/04/24 00:26:33;;;;;;;1.05;0.60;;;10.00;93.40;;;;;;4067214;29;20084;-68
2024/04/24 00:28:36;;;;;;;1.23;0.73;;;10.00;93.50;;;;;;4079108;29;20066;-68
2024/04/24 00:30:37;;;;;;;1.80;1.60;;;9.80;93.90;;;;;;4069003;29;20104;-68
2024/04/24 00:32:38;;;;;;;0.60;0.60;;;9.90;93.90;;;;;;4079507;29;20052;-68
2024/04/24 00:34:39;;;;;;;0.88;0.60;;;9.90;93.70;;;;;;4073256;29;20482;-68
2024/04/24 00:36:40;;;;;;;2.08;0.75;;;10.00;93.70;;;;;;4083430;29;20430;-70
2024/04/24 00:38:41;;;;;;;0.70;0.60;;;9.90;94.00;;;;;;4074235;29;20060;-68
2024/04/24 00:40:43;;;;;;;0.90;0.50;;;10.00;93.90;;;;;;4079763;29;20304;-68
2024/04/24 00:42:44;;;;;;;1.65;0.80;;;9.90;94.20;;;;;;4080719;29;20126;-67
2024/04/24 00:44:46;;;;;;;1.55;0.60;;;9.80;94.30;;;;;;4078078;29;20052;-67
2024/04/24 00:46:48;;;;;;;2.80;1.02;;;9.80;94.50;;;;;;4067530;29;20064;-67
2024/04/24 00:48:50;;;;;;;1.48;0.60;;;9.90;94.30;;;;;;4058543;29;20052;-67
2024/04/24 00:50:52;;;;;;;1.52;0.95;;;9.90;94.50;;;;;;4072436;29;20052;-69
2024/04/24 00:52:54;;;;;;;0.93;0.57;;;9.80;94.40;;;;;;4068964;29;20060;-68
2024/04/24 00:54:55;;;;;;;1.13;0.65;;;9.80;94.40;;;;;;4077930;29;20425;-67
2024/04/24 00:56:56;;;;;;;1.60;0.80;;;9.90;94.50;;;;;;4067688;29;20462;-69
2024/04/24 00:58:58;;;;;;;1.50;0.50;;;9.80;94.60;;;;;;4072591;29;20107;-69
2024/04/24 01:01:01;;;;;;;1.00;0.60;;;9.80;94.50;;;;;;4073653;29;20044;-68
2024/04/24 01:03:04;;;;;;;2.35;0.77;;;9.80;94.50;;;;;;4067477;29;20075;-68
2024/04/24 01:05:06;;;;;;;1.30;0.70;;;9.90;94.50;;;;;;4078359;29;20062;-67
2024/04/24 01:07:08;;;;;;;3.00;0.70;;;9.80;94.50;;;;;;4071627;29;20401;-67
2024/04/24 01:09:09;;;;;;;4.78;1.65;;;9.70;94.60;;;;;;4078515;29;20056;-67
2024/04/24 01:11:10;;;;;;;3.80;1.27;;;9.60;94.80;;;;;;4083028;29;20059;-67
2024/04/24 01:13:12;;;;;;;0.98;0.40;;;9.70;94.80;;;;;;4082842;29;20058;-68
2024/04/24 01:15:14;;;;;;;3.28;0.60;;;9.70;94.90;;;;;;4071448;29;20052;-67
2024/04/24 01:17:18;;;;;;;1.33;0.90;;;9.60;94.90;;;;;;4082173;29;20048;-68
2024/04/24 01:19:39;;;;;;;1.20;0.50;;;9.60;95.20;;;;;;4078845;29;20048;-68
2024/04/24 01:21:44;;;;;;;3.53;0.70;;;9.50;95.40;;;;;;4073420;29;20415;-67
2024/04/24 01:23:51;;;;;;;1.20;0.52;;;9.40;95.30;;;;;;4067507;29;20104;-68
2024/04/24 01:26:00;;;;;;;2.28;1.02;;;9.50;95.50;;;;;;4072204;29;20490;-66
2024/04/24 01:28:04;;;;;;;0.90;0.68;;;9.40;95.40;;;;;;4082717;29;20417;-68
2024/04/24 01:30:06;;;;;;;1.50;0.95;;;9.40;95.70;;;;;;4076377;29;20115;-65
2024/04/24 01:32:07;;;;;;;1.50;0.77;;;9.40;95.80;;;;;;4076926;29;20044;-66
2024/04/24 01:34:09;;;;;;;0.50;0.50;;;9.40;96.20;;;;;;4081916;29;20063;-67
2024/04/24 01:36:10;;;;;;;0.45;0.43;;;9.40;96.10;;;;;;4071412;29;20064;-67
2024/04/24 01:38:11;;;;;;;2.25;0.75;;;9.30;96.50;;;;;;4082399;29;20052;-67
2024/04/24 01:40:12;;;;;;;0.88;0.60;;;9.40;96.50;;;;;;4078023;29;20052;-66
2024/04/24 01:42:13;;;;;;;0.60;0.50;;;9.40;96.90;;;;;;4049182;29;20506;-67
2024/04/24 01:44:16;;;;;;;1.95;0.50;;;9.40;96.80;;;;;;4098390;29;20051;-67
2024/04/24 01:46:17;;;;;;;0.88;0.52;;;9.30;96.80;;;;;;4070975;29;20551;-66
2024/04/24 01:48:18;;;;;;;1.15;0.63;;;9.30;96.90;;;;;;4081969;29;20445;-66
2024/04/24 01:50:19;;;;;;;0.73;0.63;;;9.20;97.10;;;;;;4079672;29;20100;-66
2024/04/24 01:52:20;;;;;;;1.35;0.80;;;9.30;97.50;;;;;;4073077;29;20072;-68
2024/04/24 01:54:21;;;;;;;0.77;0.45;;;9.20;97.50;;;;;;4081929;29;20055;-67
2024/04/24 01:56:22;;;;;;;1.05;0.40;;;9.20;97.70;;;;;;4072884;29;20052;-67
2024/04/24 01:58:23;;;;;;;0.80;0.70;;;9.20;97.90;;;;;;4080033;29;20173;-67
2024/04/24 02:00:26;;;;;;;0.40;0.40;;;9.10;98.00;;;;;;4080755;29;20071;-67
2024/04/24 02:02:27;;;;;;;0.52;0.47;;;9.20;98.10;;;;;;4071742;29;20507;-67
2024/04/24 02:04:28;;;;;;;1.40;1.00;;;9.20;98.30;;;;;;4082525;29;20083;-66
2024/04/24 02:06:29;;;;;;;1.98;1.20;;;9.10;98.50;;;;;;4072101;29;20067;-66
2024/04/24 02:08:33;;;;;;;0.52;0.50;;;9.20;98.70;;;;;;4070295;29;20119;-66
2024/04/24 02:10:35;;;;;;;2.00;0.80;;;9.20;98.40;;;;;;4076599;29;20047;-67
2024/04/24 02:12:36;;;;;;;0.88;0.47;;;9.30;98.40;;;;;;4079042;29;20044;-67
2024/04/24 02:14:37;;;;;;;1.00;0.90;;;9.30;98.20;;;;;;4066574;29;20052;-67
2024/04/24 02:16:39;;;;;;;0.50;0.50;;;9.30;98.40;;;;;;4072296;29;20051;-66
2024/04/24 02:18:40;;;;;;;0.93;0.60;;;9.40;98.00;;;;;;4079677;29;20044;-66
2024/04/24 02:20:42;;;;;;;2.00;1.00;;;9.30;98.40;;;;;;4067000;29;20048;-67
2024/04/24 02:22:43;;;;;;;1.20;0.50;;;9.20;98.60;;;;;;4070795;29;20052;-67
2024/04/24 02:27:04;;;;;;;1.65;0.50;;;9.20;98.60;;;;;;4075536;29;20048;-67
2024/04/24 02:29:06;;;;;;;1.05;1.02;;;9.30;98.40;;;;;;4077230;29;20201;-67
2024/04/24 02:31:07;;;;;;;0.50;0.40;;;9.20;98.50;;;;;;4081777;29;20047;-67
2024/04/24 02:33:09;;;;;;;2.15;0.60;;;9.30;98.50;;;;;;4077086;29;20055;-67
2024/04/24 02:35:10;;;;;;;1.17;0.40;;;9.20;98.10;;;;;;4068431;29;20117;-67
2024/04/24 02:37:11;;;;;;;0.57;0.45;;;9.10;98.40;;;;;;4074118;29;20092;-67
2024/04/24 02:39:12;;;;;;;0.90;0.63;;;9.20;98.40;;;;;;4076440;29;20503;-67
2024/04/24 02:41:13;;;;;;;2.25;0.75;;;9.20;98.50;;;;;;4075600;29;20051;-67
2024/04/24 02:43:16;;;;;;;0.60;0.50;;;9.10;98.80;;;;;;4079924;29;20050;-67
2024/04/24 02:45:17;;;;;;;2.05;0.60;;;9.10;98.50;;;;;;4069565;29;20059;-67
2024/04/24 02:47:18;;;;;;;0.50;0.50;;;9.20;98.60;;;;;;4070444;29;20052;-68
2024/04/24 02:49:21;;;;;;;0.75;0.50;;;9.20;98.40;;;;;;4076257;29;20047;-70
2024/04/24 02:51:22;;;;;;;1.33;0.88;;;9.20;98.40;;;;;;4084508;29;20063;-67
2024/04/24 02:53:23;;;;;;;0.90;0.70;;;9.20;98.40;;;;;;4074330;29;20095;-62
2024/04/24 02:55:25;;;;;;;3.55;0.70;;;9.30;98.20;;;;;;4083850;29;20189;-60
2024/04/24 02:57:26;;;;;;;1.45;0.50;;;9.20;98.20;;;;;;4083613;29;20169;-64
2024/04/24 02:59:27;;;;;;;0.55;0.55;;;9.30;98.00;;;;;;4074933;29;20052;-65
2024/04/24 03:01:28;;;;;;;3.83;1.08;;;9.20;98.10;;;;;;4085511;29;20048;-66
2024/04/24 03:03:29;;;;;;;1.00;0.50;;;9.10;98.60;;;;;;4076624;29;20382;-60
2024/04/24 03:05:32;;;;;;;1.25;0.52;;;9.10;98.40;;;;;;4081082;29;20507;-60
2024/04/24 03:07:34;;;;;;;0.75;0.63;;;9.10;98.20;;;;;;4083276;29;20048;-64
2024/04/24 03:09:35;;;;;;;0.60;0.60;;;9.00;98.30;;;;;;4054785;29;20048;-62
2024/04/24 03:11:37;;;;;;;0.70;0.57;;;9.10;98.30;;;;;;4068856;29;20048;-68
2024/04/24 03:13:38;;;;;;;0.22;0.22;;;9.10;98.30;;;;;;4075394;29;20064;-61
2024/04/24 03:15:40;;;;;;;1.63;0.47;;;8.90;98.20;;;;;;4073430;29;20048;-62
2024/04/24 03:17:41;;;;;;;2.65;1.20;;;9.00;98.10;;;;;;4079259;29;20051;-61
2024/04/24 03:19:42;;;;;;;1.08;0.68;;;8.90;98.20;;;;;;4072160;29;20096;-62
2024/04/24 03:21:44;;;;;;;0.82;0.60;;;8.90;98.10;;;;;;4084519;29;20070;-61
2024/04/24 03:23:46;;;;;;;1.48;0.88;;;8.90;98.10;;;;;;4063527;29;20509;-62
2024/04/24 03:25:47;;;;;;;2.50;0.63;;;8.90;98.00;;;;;;4077649;29;20059;-62
2024/04/24 03:27:48;;;;;;;3.28;0.55;;;8.90;98.00;;;;;;4084186;29;20122;-61
2024/04/24 03:29:49;;;;;;;0.75;0.63;;;8.90;98.00;;;;;;4080121;29;20052;-62
2024/04/24 03:31:50;;;;;;;0.55;0.50;;;8.80;98.20;;;;;;4068597;29;20407;-66
2024/04/24 03:33:51;;;;;;;7.18;0.88;;;8.80;98.10;;;;;;4071512;29;20044;-62
2024/04/24 03:35:52;;;;;;;0.75;0.50;;;8.80;98.10;;;;;;4076660;29;20048;-62
2024/04/24 03:37:55;;;;;;;0.50;0.32;;;8.90;98.00;;;;;;4068529;29;20064;-62
2024/04/24 03:39:56;;;;;;;2.17;0.95;;;8.80;98.00;;;;;;4078071;29;20056;-64
2024/04/24 03:41:57;;;;;;;1.23;0.60;;;8.80;98.00;;;;;;4081554;29;20087;-61
2024/04/24 03:43:58;;;;;;;0.50;0.25;;;8.80;98.00;;;;;;4079742;29;20040;-63
2024/04/24 03:46:00;;;;;;;1.02;0.40;;;8.80;97.80;;;;;;4061902;29;20351;-64
2024/04/24 03:48:01;;;;;;;0.50;0.30;;;8.70;97.80;;;;;;4068128;29;20060;-62
2024/04/24 03:50:02;;;;;;;0.75;0.20;;;8.70;97.80;;;;;;4076010;29;20486;-62
2024/04/24 03:52:04;;;;;;;1.20;0.25;;;8.70;98.00;;;;;;4071669;29;20060;-65
2024/04/24 03:54:06;;;;;;;0.90;0.30;;;8.70;97.90;;;;;;4069200;29;20047;-63
2024/04/24 03:56:08;;;;;;;0.45;0.40;;;8.70;98.00;;;;;;4078367;29;20036;-61
2024/04/24 03:58:09;;;;;;;0.90;0.50;;;8.70;97.90;;;;;;4068037;29;20048;-63
2024/04/24 04:00:11;;;;;;;2.45;0.70;;;8.70;97.70;;;;;;4074418;29;20047;-64
2024/04/24 04:02:12;;;;;;;0.95;0.32;;;8.70;97.90;;;;;;4072924;29;20055;-62
2024/04/24 04:04:13;;;;;;;1.67;0.70;;;8.70;97.80;;;;;;4068694;29;20044;-63
2024/04/24 04:06:14;;;;;;;0.95;0.40;;;8.60;97.70;;;;;;4078487;29;20059;-63
2024/04/24 04:08:16;;;;;;;1.52;0.93;;;8.60;97.70;;;;;;4050062;29;20059;-64
2024/04/24 04:10:18;;;;;;;0.85;0.40;;;8.70;97.80;;;;;;4079160;29;20071;-63
2024/04/24 04:12:19;;;;;;;0.90;0.43;;;8.70;97.60;;;;;;4074593;29;20048;-64
2024/04/24 04:14:20;;;;;;;0.52;0.30;;;8.60;97.50;;;;;;4067578;29;20060;-63
2024/04/24 04:16:22;;;;;;;1.73;0.80;;;8.60;97.50;;;;;;4079298;29;20079;-62
2024/04/24 04:18:23;;;;;;;0.77;0.38;;;8.60;97.80;;;;;;4082503;29;20209;-64
2024/04/24 04:20:24;;;;;;;0.77;0.60;;;8.60;97.40;;;;;;4070387;29;20048;-65
2024/04/24 04:22:25;;;;;;;1.58;0.30;;;8.60;97.30;;;;;;4076145;29;20044;-61
2024/04/24 04:24:26;;;;;;;0.90;0.32;;;8.60;97.00;;;;;;4067820;29;20063;-61
2024/04/24 04:26:29;;;;;;;0.47;0.32;;;8.60;97.00;;;;;;4077130;29;20055;-61
2024/04/24 04:28:30;;;;;;;2.92;1.55;;;8.60;97.00;;;;;;4069265;29;20056;-61
2024/04/24 04:30:31;;;;;;;2.30;0.32;;;8.50;96.90;;;;;;4068676;29;20048;-62
2024/04/24 04:32:32;;;;;;;2.45;1.52;;;8.50;97.00;;;;;;4077567;29;20044;-62
2024/04/24 04:34:34;;;;;;;2.50;0.82;;;8.60;96.80;;;;;;4067590;29;20111;-66
2024/04/24 04:36:35;;;;;;;0.68;0.52;;;8.60;96.70;;;;;;4075559;29;20111;-61
2024/04/24 04:38:36;;;;;;;2.00;1.00;;;8.50;96.80;;;;;;4070741;29;20059;-68
2024/04/24 04:40:37;;;;;;;0.40;0.30;;;8.50;96.90;;;;;;4069674;29;20048;-62
2024/04/24 04:42:40;;;;;;;1.27;1.08;;;8.50;96.70;;;;;;4067366;29;20066;-63
2024/04/24 04:44:41;;;;;;;0.50;0.40;;;8.40;96.70;;;;;;4083099;29;20051;-61
2024/04/24 04:46:42;;;;;;;0.20;0.20;;;8.40;96.90;;;;;;4075817;29;20044;-61
2024/04/24 04:48:43;;;;;;;0.80;0.52;;;8.40;96.80;;;;;;4077773;29;20129;-61
2024/04/24 04:50:44;;;;;;;0.70;0.43;;;8.40;96.80;;;;;;4081713;29;20064;-64
2024/04/24 04:52:45;;;;;;;0.85;0.40;;;8.40;96.70;;;;;;4077891;29;20148;-61
2024/04/24 04:54:47;;;;;;;0.55;0.43;;;8.30;97.10;;;;;;4067265;29;20063;-64
2024/04/24 04:56:48;;;;;;;2.13;0.75;;;8.30;96.90;;;;;;4071038;29;20047;-63
2024/04/24 04:58:50;;;;;;;2.47;1.10;;;8.30;97.00;;;;;;4074283;29;20107;-63
2024/04/24 05:00:51;;;;;;;0.90;0.43;;;8.40;97.20;;;;;;4067423;29;20044;-63
2024/04/24 05:02:53;;;;;;;0.20;0.20;;;8.40;97.10;;;;;;4078440;29;20047;-63
2024/04/24 05:04:54;;;;;;;1.30;0.65;;;8.40;96.90;;;;;;4067404;29;20048;-63
2024/04/24 05:06:55;;;;;;;1.00;0.60;;;8.50;96.90;;;;;;4069481;29;20107;-64
2024/04/24 05:08:57;;;;;;;1.83;0.35;;;8.40;96.80;;;;;;4073894;29;20046;-67
2024/04/24 05:10:58;;;;;;;2.35;0.40;;;8.40;97.20;;;;;;4068295;29;20052;-63
2024/04/24 05:12:59;;;;;;;2.38;0.60;;;8.40;97.00;;;;;;4070867;29;20044;-63
2024/04/24 05:15:02;;;;;;;2.10;0.40;;;8.50;96.90;;;;;;4080805;29;20142;-64
2024/04/24 05:17:03;;;;;;;0.45;0.30;;;8.50;97.00;;;;;;4078452;29;20064;-65
2024/04/24 05:19:05;;;;;;;1.48;0.70;;;8.50;97.00;;;;;;4067517;29;20052;-64
2024/04/24 05:21:06;;;;;;;0.50;0.47;;;8.40;96.40;;;;;;4067108;29;20055;-64
2024/04/24 05:23:07;;;;;;;0.52;0.40;;;8.40;96.70;;;;;;4075082;29;20032;-64
2024/04/24 05:25:08;;;;;;;1.13;0.50;;;8.40;96.90;;;;;;4071297;29;20056;-64
2024/04/24 05:29:30;;;;;;;0.50;0.30;;;8.60;96.90;;;;;;4067038;29;20045;-64
2024/04/24 05:31:32;;;;;;;2.63;0.73;;;8.60;97.00;;;;;;4071260;29;20489;-65
2024/04/24 05:33:33;;;;;;;1.00;0.32;;;8.60;96.70;;;;;;4075329;29;20062;-63
2024/04/24 05:35:35;;;;;;;1.35;0.28;;;8.60;96.70;;;;;;4069426;29;20580;-64
2024/04/24 05:37:36;;;;;;;3.92;0.30;;;8.60;96.80;;;;;;4067890;29;20433;-64
2024/04/24 05:39:37;;;;;;;0.70;0.30;;;8.70;96.60;;;;;;4077024;29;20052;-64
2024/04/24 05:41:38;;;;;;;0.85;0.30;;;8.70;96.60;;;;;;4076152;29;20056;-66
2024/04/24 05:43:39;;;;;;;0.30;0.20;;;8.70;96.60;;;;;;4078315;29;20050;-63
2024/04/24 05:45:40;;;;;;;1.38;1.10;;;8.80;96.40;;;;;;4071284;29;20044;-63
2024/04/24 05:47:42;;;;;;;0.63;0.30;;;8.90;96.40;;;;;;4067776;29;20044;-63
2024/04/24 05:49:44;;;;;;;0.73;0.65;;;8.90;96.50;;;;;;4077255;29;20048;-64
2024/04/24 05:51:45;;;;;;;0.30;0.30;;;8.90;96.30;;;;;;4067513;29;20059;-64
2024/04/24 05:53:46;;;;;;;1.17;1.08;;;8.80;96.10;;;;;;4072115;29;20099;-67
2024/04/24 05:55:47;;;;;;;1.48;0.30;;;8.80;96.20;;;;;;4073676;29;20210;-65
2024/04/24 05:57:48;;;;;;;1.00;0.85;;;8.80;96.20;;;;;;4067616;29;20473;-65
2024/04/24 05:59:49;;;;;;;0.45;0.38;;;8.90;96.40;;;;;;4078825;29;20083;-65
2024/04/24 06:01:50;;;;;;;0.82;0.40;;;8.90;96.40;;;;;;4067858;29;20542;-65
2024/04/24 06:03:53;;;;;;;0.45;0.38;;;8.90;96.40;;;;;;4071566;29;20379;-68
2024/04/24 06:05:54;;;;;;;0.50;0.50;;;8.90;96.40;;;;;;4074726;29;20107;-64
2024/04/24 06:07:55;;;;;;;0.55;0.40;;;8.90;96.50;;;;;;4082941;29;20059;-66
2024/04/24 06:09:56;;;;;;;0.73;0.55;;;9.00;96.50;;;;;;4076941;29;20502;-64
2024/04/24 06:11:57;;;;;;;0.82;0.50;;;9.00;96.40;;;;;;4084533;29;20126;-63
2024/04/24 06:13:58;;;;;;;1.40;0.55;;;9.00;96.40;;;;;;4081021;29;20040;-64
2024/04/24 06:15:59;;;;;;;1.30;0.65;;;9.10;96.30;;;;;;4080707;29;20051;-64
2024/04/24 06:18:00;;;;;;;1.15;0.85;;;9.10;96.60;;;;;;4084405;29;20043;-63
2024/04/24 06:20:03;;;;;;;5.75;1.15;;;9.10;96.90;;;;;;4065646;29;20131;-64
2024/04/24 06:22:04;;;;;;;7.20;1.40;;;9.10;96.60;;;;;;4072927;29;20411;-63
2024/04/24 06:24:06;;;;;;;2.88;1.45;;;9.00;96.40;;;;;;4070739;29;20127;-62
2024/04/24 06:26:07;;;;;;;4.63;0.80;;;9.00;96.90;;;;;;4073036;29;20044;-63
2024/04/24 06:28:08;;;;;;;0.93;0.88;;;9.00;96.80;;;;;;4085241;29;20436;-63
2024/04/24 06:30:10;;;;;;;1.95;1.00;;;9.00;96.60;;;;;;4078924;29;20125;-64
2024/04/24 06:32:11;;;;;;;1.60;0.80;;;9.00;96.80;;;;;;4080383;29;20075;-63
2024/04/24 06:34:12;;;;;;;1.25;0.68;;;9.10;96.50;;;;;;4083973;29;20468;-70
2024/04/24 06:36:14;;;;;;;0.95;0.40;;;9.10;96.40;;;;;;4074477;29;20490;-66
2024/04/24 06:38:16;;;;;;;0.30;0.30;;;9.10;96.20;;;;;;4085338;29;20151;-64
2024/04/24 06:40:17;;;;;;;1.30;0.50;;;9.20;96.50;;;;;;4080530;29;20043;-64
2024/04/24 06:42:18;;;;;;;2.25;0.40;;;9.20;96.20;;;;;;4084853;29;20092;-64
2024/04/24 06:44:19;;;;;;;0.82;0.73;;;9.20;96.30;;;;;;4085109;29;20556;-64
2024/04/24 06:46:22;;;;;;;3.67;1.35;;;9.20;95.80;;;;;;4073158;29;20056;-64
2024/04/24 06:48:23;;;;;;;0.28;0.28;;;9.20;95.60;;;;;;4069722;29;20478;-63
2024/04/24 06:50:24;;;;;;;1.17;0.30;;;9.20;96.10;;;;;;4072614;29;20082;-64
2024/04/24 06:52:27;;;;;;;2.20;0.82;;;9.20;95.60;;;;;;4078598;29;20048;-65
2024/04/24 06:54:28;;;;;;;0.82;0.30;;;9.20;95.50;;;;;;4069575;29;20059;-63
2024/04/24 06:56:29;;;;;;;1.42;0.77;;;9.10;95.50;;;;;;4079574;29;20051;-64
2024/04/24 06:58:31;;;;;;;1.55;0.47;;;9.20;95.50;;;;;;4070192;29;20131;-64
2024/04/24 07:00:32;;;;;;;3.55;1.20;;;9.30;95.40;;;;;;4070590;29;20521;-62
2024/04/24 07:02:33;;;;;;;0.85;0.30;;;9.30;95.30;;;;;;4079352;29;20052;-64
2024/04/24 07:04:35;;;;;;;2.53;1.45;;;9.20;95.00;;;;;;4069074;29;20040;-64
2024/04/24 07:06:36;;;;;;;4.00;0.40;;;9.10;94.60;;;;;;4077605;29;20055;-67
2024/04/24 07:08:40;;;;;;;1.23;1.13;;;9.10;94.90;;;;;;4072605;29;20417;-64
2024/04/24 07:10:41;;;;;;;0.53;0.40;;;9.00;94.70;;;;;;4070408;29;20048;-63
2024/04/24 07:12:42;;;;;;;1.20;0.70;;;9.10;94.80;;;;;;4079198;29;20552;-63
2024/04/24 07:14:43;;;;;;;0.13;0.13;;;9.00;94.70;;;;;;4068870;29;20059;-64
2024/04/24 07:16:44;;;;;;;1.02;0.70;;;9.00;94.60;;;;;;4075210;29;20486;-62
2024/04/24 07:18:45;;;;;;;0.50;0.30;;;9.10;94.60;;;;;;4081464;29;20048;-63
2024/04/24 07:20:46;;;;;;;0.82;0.52;;;9.30;94.60;;;;;;4070345;29;20048;-64
2024/04/24 07:22:47;;;;;;;2.72;0.35;;;9.30;94.20;;;;;;4079685;29;20614;-64
2024/04/24 07:24:50;;;;;;;3.40;1.30;;;9.40;94.00;;;;;;4068715;29;20048;-63
2024/04/24 07:26:51;;;;;;;1.27;0.30;;;9.40;94.10;;;;;;4073391;29;20537;-64
2024/04/24 07:28:53;;;;;;;1.05;0.28;;;9.50;93.80;;;;;;4075287;29;20075;-63
2024/04/24 07:30:54;;;;;;;0.17;0.17;;;9.50;94.10;;;;;;4068905;29;20059;-65
2024/04/24 07:32:55;;;;;;;1.02;0.38;;;9.60;93.70;;;;;;4081091;29;20047;-63
2024/04/24 07:34:56;;;;;;;0.52;0.30;;;9.70;93.60;;;;;;4069145;29;20055;-64
2024/04/24 07:36:57;;;;;;;0.65;0.30;;;9.80;93.60;;;;;;4071956;29;20068;-63
2024/04/24 07:38:58;;;;;;;1.98;0.50;;;9.80;93.20;;;;;;4077200;29;20099;-62
2024/04/24 07:41:05;;;;;;;2.65;1.50;;;9.70;93.30;;;;;;4072100;29;20090;-63
2024/04/24 07:43:06;;;;;;;1.98;0.77;;;9.70;93.10;;;;;;4080080;29;20443;-64
2024/04/24 07:45:07;;;;;;;1.48;1.35;;;9.80;92.80;;;;;;4054003;29;20135;-64
2024/04/24 07:47:08;;;;;;;8.40;0.63;;;9.70;92.60;;;;;;4070031;29;20063;-65
2024/04/24 07:49:09;;;;;;;0.20;0.20;;;9.60;92.80;;;;;;4078717;29;20545;-64
2024/04/24 07:51:11;;;;;;;0.77;0.50;;;9.50;93.30;;;;;;4052639;29;20105;-65
2024/04/24 07:53:13;;;;;;;2.63;0.55;;;9.40;93.30;;;;;;4077036;29;20048;-63
2024/04/24 07:55:14;;;;;;;0.68;0.63;;;9.50;93.40;;;;;;4070481;29;20056;-63
2024/04/24 07:57:17;;;;;;;1.98;0.38;;;9.70;93.30;;;;;;4069811;29;20040;-65
2024/04/24 07:59:18;;;;;;;0.47;0.40;;;9.90;93.10;;;;;;4079166;29;20059;-64
2024/04/24 08:01:21;;;;;;;0.88;0.40;;;9.90;92.60;;;;;;4068163;29;20040;-63
2024/04/24 08:03:22;;;;;;;1.70;1.02;;;9.90;92.70;;;;;;4075194;29;20557;-63
2024/04/24 08:05:24;;;;;;;0.30;0.20;;;10.10;92.70;;;;;;4074417;29;20044;-64
2024/04/24 08:07:25;;;;;;;0.50;0.32;;;10.30;92.90;;;;;;4081263;29;20572;-64
2024/04/24 08:09:26;;;;;;;1.75;0.60;;;10.60;92.00;;;;;;4082797;29;20052;-64
2024/04/24 08:11:27;;;;;;;0.25;0.25;;;10.90;92.00;;;;;;4083559;29;20507;-63
2024/04/24 08:13:30;;;;;;;2.40;0.32;;;11.10;91.20;;;;;;4077241;29;20048;-65
2024/04/24 08:15:31;;;;;;;1.50;0.80;;;11.20;90.60;;;;;;4077075;29;20324;-65
2024/04/24 08:17:32;;;;;;;1.48;1.00;;;11.30;90.20;;;;;;4080318;29;20094;-66
2024/04/24 08:19:34;;;;;;;1.55;0.30;;;11.20;90.20;;;;;;4077994;29;20059;-64
2024/04/24 08:21:35;;;;;;;0.20;0.20;;;11.00;90.10;;;;;;4079876;29;20146;-69
2024/04/24 08:23:36;;;;;;;0.35;0.20;;;10.80;90.10;;;;;;4079487;29;20118;-66
2024/04/24 08:25:37;;;;;;;2.38;0.30;;;10.80;90.30;;;;;;4064855;29;20051;-66
2024/04/24 08:27:38;;;;;;;1.95;0.77;;;10.70;90.20;;;;;;4083099;29;20051;-64
2024/04/24 08:29:40;;;;;;;2.38;0.30;;;10.50;90.20;;;;;;4080278;29;20048;-64
2024/04/24 08:31:42;;;;;;;1.55;0.85;;;10.60;90.30;;;;;;4067796;29;20119;-64
2024/04/24 08:33:43;;;;;;;1.02;0.52;;;10.80;90.40;;;;;;4072192;29;20091;-65
2024/04/24 08:35:44;;;;;;;0.88;0.30;;;10.80;90.00;;;;;;4076553;29;20064;-64
2024/04/24 08:37:45;;;;;;;1.77;0.30;;;10.90;90.00;;;;;;4067912;29;20048;-64
2024/04/24 08:39:46;;;;;;;0.45;0.30;;;11.00;90.10;;;;;;4076093;29;20456;-64
2024/04/24 08:41:48;;;;;;;1.73;0.65;;;11.20;90.30;;;;;;4066294;29;20509;-65
2024/04/24 08:43:51;;;;;;;1.33;0.47;;;11.30;90.40;;;;;;4081149;29;20048;-65
2024/04/24 08:45:59;;;;;;;4.00;0.85;;;11.30;90.20;;;;;;4080339;29;20055;-62
2024/04/24 08:48:01;;;;;;;2.08;0.50;;;11.40;90.30;;;;;;4083423;29;20561;-67
2024/04/24 08:50:03;;;;;;;1.08;0.50;;;11.40;89.70;;;;;;4074293;29;20041;-63
2024/04/24 08:52:06;;;;;;;0.47;0.32;;;11.30;88.70;;;;;;4082522;29;20051;-65
2024/04/24 08:54:11;;;;;;;0.57;0.40;;;11.30;88.20;;;;;;4079516;29;20039;-64
2024/04/24 08:56:17;;;;;;;0.40;0.30;;;11.30;87.50;;;;;;4081683;29;20051;-64
2024/04/24 08:58:22;;;;;;;1.48;0.22;;;11.10;88.10;;;;;;4081922;29;20181;-65
2024/04/24 09:00:26;;;;;;;0.60;0.30;;;11.30;86.70;;;;;;4079020;29;20071;-65
2024/04/24 09:02:32;;;;;;;0.25;0.20;;;11.30;86.10;;;;;;4077067;29;20102;-66
2024/04/24 09:04:34;;;;;;;0.80;0.63;;;11.40;85.50;;;;;;4077850;29;20130;-63
2024/04/24 09:06:38;;;;;;;1.52;0.25;;;11.20;85.90;;;;;;4071832;29;20048;-62
2024/04/24 09:08:41;;;;;;;2.17;1.02;;;11.10;85.60;;;;;;4073480;29;20044;-64
2024/04/24 09:10:44;;;;;;;4.13;0.40;;;11.10;86.50;;;;;;4079294;29;20062;-64
2024/04/24 09:12:47;;;;;;;0.28;0.20;;;11.10;86.60;;;;;;4076772;29;20136;-69
2024/04/24 09:14:48;;;;;;;0.50;0.30;;;11.10;86.90;;;;;;4079850;29;20494;-64
2024/04/24 09:16:50;;;;;;;0.80;0.70;;;11.20;86.80;;;;;;4078533;29;20068;-64
2024/04/24 09:19:02;;;;;;;0.93;0.20;;;11.30;85.80;;;;;;4083080;29;20478;-65
2024/04/24 09:21:04;;;;;;;0.75;0.20;;;11.50;85.70;;;;;;4074305;29;20040;-65
2024/04/24 09:23:11;;;;;;;0.28;0.28;;;11.70;84.70;;;;;;4079473;29;20103;-71
2024/04/24 09:25:13;;;;;;;0.10;0.10;;;11.90;84.40;;;;;;4082245;29;20047;-65
2024/04/24 09:27:17;;;;;;;0.35;0.25;;;12.00;83.90;;;;;;4076331;29;20073;-66
2024/04/24 09:29:18;;;;;;;0.45;0.20;;;12.10;82.90;;;;;;4082009;29;20059;-63
2024/04/24 09:31:19;;;;;;;0.17;0.10;;;12.00;80.80;;;;;;4078856;29;20044;-66
2024/04/24 09:33:20;;;;;;;1.40;0.43;;;11.80;80.10;;;;;;4082611;29;20378;-66
2024/04/24 09:35:23;;;;;;;0.95;0.52;;;11.80;80.60;;;;;;4081179;29;20621;-65
2024/04/24 09:37:24;;;;;;;0.38;0.20;;;11.80;79.90;;;;;;4072262;29;20058;-65
2024/04/24 09:39:26;;;;;;;0.25;0.10;;;11.60;81.80;;;;;;4081681;29;20060;-69
2024/04/24 09:41:27;;;;;;;2.83;1.00;;;11.70;80.80;;;;;;4081239;29;20047;-65
2024/04/24 09:43:29;;;;;;;0.25;0.10;;;11.80;81.90;;;;;;4072045;29;20044;-65
2024/04/24 09:45:31;;;;;;;0.77;0.28;;;11.90;81.40;;;;;;4067675;29;20482;-69
2024/04/24 09:47:32;;;;;;;0.30;0.20;;;11.80;80.30;;;;;;4055122;29;20482;-65
2024/04/24 09:49:37;;;;;;;0.85;0.30;;;11.80;81.30;;;;;;4077324;29;20140;-65
2024/04/24 09:51:40;;;;;;;1.10;0.50;;;11.70;81.70;;;;;;4068641;29;20035;-67
2024/04/24 09:53:41;;;;;;;0.75;0.50;;;11.80;81.80;;;;;;4076946;29;20047;-68
2024/04/24 09:55:48;;;;;;;0.95;0.20;;;11.90;82.10;;;;;;4079279;29;20111;-66
2024/04/24 09:57:55;;;;;;;0.08;0.08;;;11.80;81.70;;;;;;4076068;29;20043;-68
2024/04/24 09:59:59;;;;;;;2.22;1.25;;;11.70;80.50;;;;;;4073723;29;20415;-64
2024/04/24 10:02:04;;;;;;;3.08;0.30;;;11.80;80.60;;;;;;4076856;29;20103;-65
2024/04/24 10:04:06;;;;;;;0.68;0.68;;;11.80;81.40;;;;;;4078285;29;20044;-64
2024/04/24 10:06:11;;;;;;;0.60;0.20;;;11.90;80.60;;;;;;4076975;29;20465;-63
2024/04/24 10:08:18;;;;;;;0.82;0.50;;;12.10;79.90;;;;;;4063409;29;20048;-66
2024/04/24 10:10:26;;;;;;;1.38;0.43;;;12.30;78.60;;;;;;4077151;29;20148;-63
2024/04/24 10:12:33;;;;;;;0.10;0.10;;;12.40;78.00;;;;;;4074824;29;20458;-63
2024/04/24 10:14:38;;;;;;;0.85;0.30;;;12.50;76.60;;;;;;4081767;29;20055;-76
2024/04/24 10:16:39;;;;;;;0.50;0.50;;;12.60;77.20;;;;;;4080761;29;20084;-65
2024/04/24 10:18:41;;;;;;;0.88;0.20;;;12.80;77.20;;;;;;4076656;29;20461;-66
2024/04/24 10:20:44;;;;;;;8.52;1.08;;;13.00;76.10;;;;;;4050781;29;20513;-64
2024/04/24 10:22:46;;;;;;;1.45;0.80;;;13.20;76.30;;;;;;4072602;29;20044;-65
2024/04/24 10:24:50;;;;;;;0.50;0.20;;;13.30;73.20;;;;;;4078531;29;20050;-65
2024/04/24 10:26:52;;;;;;;1.13;0.73;;;13.30;73.70;;;;;;4077833;29;20056;-65
2024/04/24 10:28:54;;;;;;;0.57;0.20;;;13.40;74.30;;;;;;4074198;29;20118;-68
2024/04/24 10:30:57;;;;;;;3.28;0.22;;;13.30;72.90;;;;;;4074995;29;20052;-66
2024/04/24 10:32:58;;;;;;;0.75;0.35;;;13.00;72.50;;;;;;4077348;29;20051;-67
2024/04/24 10:35:00;;;;;;;2.13;1.52;;;12.80;73.90;;;;;;4076815;29;20059;-66
2024/04/24 10:37:01;;;;;;;0.20;0.20;;;12.60;75.20;;;;;;4060799;29;20066;-65
2024/04/24 10:39:04;;;;;;;0.30;0.30;;;12.60;76.00;;;;;;4074045;29;20154;-67
2024/04/24 10:41:07;;;;;;;2.38;1.70;;;12.80;77.70;;;;;;4080064;29;20051;-68
2024/04/24 10:43:09;;;;;;;11.55;3.60;;;12.80;76.80;;;;;;4053756;29;20052;-67